Time;durP1;ratioP1;P1;durP2;ratioP2;P2;SDS_P1;SDS_P2;PMS_P1;PMS_P2;Temp;Humidity;BMP_temperature;BMP_pressure;BME280_temperature;BME280_humidity;BME280_pressure;Samples;Min_cycle;Max_cycle;Signal;HPM_P1;HPM_P2
2024/03/12 00:00:21;;;;;;;42.08;28.42;;;;;;;13.22;65.75;99463.06;6092260;23;100805;-81
2024/03/12 00:02:47;;;;;;;39.95;28.80;;;;;;;13.24;65.35;99473.53;6116973;23;97142;-80
2024/03/12 00:05:18;;;;;;;49.38;30.05;;;;;;;13.17;66.02;99472.16;6119036;23;96940;-80
2024/03/12 00:07:45;;;;;;;43.45;28.58;;;;;;;13.10;65.86;99469.03;6119228;22;97131;-80
2024/03/12 00:10:15;;;;;;;42.35;29.73;;;;;;;13.14;65.92;99467.91;6091606;23;98644;-81
2024/03/12 00:12:47;;;;;;;42.10;28.73;;;;;;;13.20;66.05;99475.47;6116273;23;97783;-81
2024/03/12 00:15:16;;;;;;;42.92;28.70;;;;;;;13.10;65.96;99475.16;6116466;23;96743;-79
2024/03/12 00:17:41;;;;;;;46.15;29.27;;;;;;;13.14;66.16;99465.28;6116257;23;97306;-80
2024/03/12 00:20:16;;;;;;;41.70;29.80;;;;;;;12.99;65.78;99451.22;6097566;22;100149;-81
2024/03/12 00:22:47;;;;;;;46.45;30.42;;;;;;;12.98;65.84;99460.06;6074571;22;100174;-81
2024/03/12 00:25:14;;;;;;;41.75;28.98;;;;;;;13.07;66.01;99461.31;6122144;22;97188;-81
2024/03/12 00:27:40;;;;;;;41.50;29.58;;;;;;;13.03;66.16;99462.41;6122466;22;96806;-81
2024/03/12 00:30:09;;;;;;;41.47;28.83;;;;;;;13.04;67.02;99475.50;6097701;22;97340;-81
2024/03/12 00:32:36;;;;;;;45.00;30.65;;;;;;;13.01;66.86;99474.84;6096570;22;97993;-81
2024/03/12 00:35:05;;;;;;;43.65;30.00;;;;;;;12.98;66.79;99473.22;6096495;22;97061;-82
2024/03/12 00:37:32;;;;;;;44.95;31.30;;;;;;;13.02;66.64;99480.00;6097226;22;96829;-81
2024/03/12 00:39:57;;;;;;;43.45;30.92;;;;;;;12.92;67.35;99473.59;6097729;22;100638;-82
2024/03/12 00:42:23;;;;;;;42.38;30.27;;;;;;;13.01;67.66;99482.75;6122293;22;97089;-81
2024/03/12 00:44:49;;;;;;;40.00;30.02;;;;;;;13.05;67.04;99481.63;6121938;22;96644;-80
2024/03/12 00:47:16;;;;;;;44.95;31.83;;;;;;;13.11;67.08;99476.00;6098063;22;96792;-81
2024/03/12 00:49:41;;;;;;;44.38;30.08;;;;;;;13.06;66.72;99478.91;6097615;22;97978;-80
2024/03/12 00:52:07;;;;;;;43.47;30.38;;;;;;;13.04;66.85;99469.41;6097849;22;99620;-81
2024/03/12 00:54:35;;;;;;;44.65;31.10;;;;;;;13.10;66.79;99479.59;6121546;22;97008;-81
2024/03/12 00:57:02;;;;;;;43.60;29.60;;;;;;;13.05;67.44;99482.47;6098592;22;97292;-81
2024/03/12 00:59:29;;;;;;;40.20;28.98;;;;;;;13.10;67.37;99477.78;6095477;22;99583;-84
2024/03/12 01:01:55;;;;;;;43.33;29.27;;;;;;;13.14;67.31;99483.72;6148128;22;97073;-81
2024/03/12 01:04:21;;;;;;;44.63;30.63;;;;;;;13.15;67.05;99474.91;6096390;22;96665;-81
2024/03/12 01:06:49;;;;;;;40.78;29.25;;;;;;;13.14;67.06;99467.91;6121586;22;97266;-82
2024/03/12 01:09:17;;;;;;;47.28;30.33;;;;;;;13.14;67.42;99471.41;6096709;22;99937;-83
2024/03/12 01:11:46;;;;;;;42.40;30.20;;;;;;;13.16;67.19;99471.31;6122813;22;97362;-81
2024/03/12 01:14:12;;;;;;;44.42;29.83;;;;;;;13.13;67.03;99468.88;6097416;22;96755;-81
2024/03/12 01:16:38;;;;;;;45.13;31.20;;;;;;;13.10;67.36;99461.13;6098018;22;96795;-81
2024/03/12 01:19:06;;;;;;;44.88;29.38;;;;;;;13.16;67.31;99468.69;6121704;22;97888;-80
2024/03/12 01:21:32;;;;;;;43.40;29.60;;;;;;;13.14;67.14;99458.22;6073377;22;100601;-80
2024/03/12 01:23:58;;;;;;;43.83;30.13;;;;;;;13.12;66.98;99464.53;6096470;22;97093;-80
2024/03/12 01:26:25;;;;;;;38.08;29.33;;;;;;;13.11;67.78;99466.31;6097650;22;97057;-80
2024/03/12 01:28:51;;;;;;;40.25;29.90;;;;;;;13.16;67.66;99476.59;6122351;22;97369;-80
2024/03/12 01:31:17;;;;;;;43.42;29.67;;;;;;;13.18;67.74;99473.84;6097515;22;100743;-79
2024/03/12 01:33:43;;;;;;;43.45;29.98;;;;;;;13.13;67.72;99461.81;6097470;22;97028;-80
2024/03/12 01:36:20;;;;;;;45.13;30.95;;;;;;;13.14;67.38;99463.50;6097363;22;96750;-81
2024/03/12 01:38:52;;;;;;;41.92;29.55;;;;;;;13.13;67.50;99461.81;6099652;22;100525;-80
2024/03/12 01:41:17;;;;;;;45.97;30.27;;;;;;;13.17;67.59;99467.72;6098118;22;100553;-82
2024/03/12 01:43:43;;;;;;;42.90;30.20;;;;;;;13.05;67.77;99457.91;6097112;22;96758;-81
2024/03/12 01:46:10;;;;;;;42.90;29.15;;;;;;;13.07;67.64;99469.22;6148820;22;96846;-80
2024/03/12 01:48:36;;;;;;;43.17;29.88;;;;;;;12.98;67.62;99456.59;6096934;22;97566;-81
2024/03/12 01:51:05;;;;;;;43.05;28.00;;;;;;;12.87;67.87;99462.47;6122367;22;97931;-81
2024/03/12 01:53:33;;;;;;;43.65;28.35;;;;;;;12.98;67.88;99473.22;6096666;22;96771;-81
2024/03/12 01:56:00;;;;;;;37.75;27.90;;;;;;;13.04;67.61;99474.66;6072334;22;96707;-81
2024/03/12 01:58:26;;;;;;;47.55;31.88;;;;;;;13.07;67.66;99464.78;6122023;22;97859;-81
2024/03/12 02:00:52;;;;;;;42.10;28.80;;;;;;;13.04;68.01;99466.75;6096545;22;97591;-80
2024/03/12 02:03:18;;;;;;;44.60;30.20;;;;;;;13.00;68.17;99458.19;6096340;22;97236;-83
2024/03/12 02:05:46;;;;;;;51.53;29.50;;;;;;;12.97;68.23;99463.63;6096586;22;96798;-81
2024/03/12 02:08:12;;;;;;;42.83;30.90;;;;;;;13.06;68.10;99467.50;6096362;22;97472;-80
2024/03/12 02:10:38;;;;;;;40.05;29.50;;;;;;;13.07;68.19;99475.34;6148066;22;97548;-82
2024/03/12 02:13:04;;;;;;;41.65;29.23;;;;;;;13.10;67.60;99469.88;6096637;22;96753;-81
2024/03/12 02:15:30;;;;;;;39.72;29.20;;;;;;;13.03;67.69;99465.03;6121959;22;96724;-80
2024/03/12 02:17:56;;;;;;;40.38;28.85;;;;;;;13.06;67.79;99467.50;6122190;22;100416;-81
2024/03/12 02:20:21;;;;;;;39.17;29.10;;;;;;;13.07;67.66;99472.69;6116613;23;97508;-81
2024/03/12 02:22:47;;;;;;;44.05;29.58;;;;;;;13.03;67.62;99473.81;6068065;23;97106;-81
2024/03/12 02:25:13;;;;;;;41.95;30.90;;;;;;;13.06;67.76;99475.41;6092564;23;97015;-82
2024/03/12 02:27:42;;;;;;;44.55;30.67;;;;;;;13.03;67.76;99480.84;6092122;23;100290;-81
2024/03/12 02:30:09;;;;;;;39.42;27.83;;;;;;;13.06;67.81;99485.94;6117858;23;97826;-81
2024/03/12 02:32:36;;;;;;;42.42;31.20;;;;;;;13.02;67.72;99477.38;6091944;23;96784;-81
2024/03/12 02:35:01;;;;;;;40.08;28.92;;;;;;;13.00;68.05;99476.63;6117131;23;96726;-80
2024/03/12 02:37:27;;;;;;;40.03;29.30;;;;;;;12.86;67.74;99458.13;6116127;23;97075;-82
2024/03/12 02:39:52;;;;;;;41.20;28.63;;;;;;;12.97;68.05;99474.16;6091811;23;100799;-82
2024/03/12 02:42:18;;;;;;;40.80;28.23;;;;;;;12.95;67.78;99472.56;6118025;23;96647;-82
2024/03/12 02:44:43;;;;;;;41.20;29.48;;;;;;;12.88;68.12;99464.16;6116150;23;96705;-81
2024/03/12 02:47:09;;;;;;;38.95;28.30;;;;;;;12.90;68.31;99467.53;6117968;23;97350;-81
2024/03/12 02:49:36;;;;;;;39.97;29.58;;;;;;;12.89;67.44;99471.13;6116421;23;97458;-81
2024/03/12 02:52:02;;;;;;;40.55;29.92;;;;;;;12.87;67.59;99476.47;6068057;23;96908;-81
2024/03/12 02:54:28;;;;;;;40.97;29.25;;;;;;;12.81;67.57;99468.91;6067303;23;97067;-83
2024/03/12 02:56:53;;;;;;;38.80;28.65;;;;;;;12.93;67.01;99477.91;6093608;23;97559;-81
2024/03/12 02:59:20;;;;;;;41.72;29.35;;;;;;;12.81;67.48;99463.66;6116203;23;97483;-81
2024/03/12 03:01:45;;;;;;;42.00;30.27;;;;;;;12.72;67.92;99472.06;6117767;23;96720;-82
2024/03/12 03:04:11;;;;;;;44.25;30.85;;;;;;;12.75;67.56;99471.06;6068766;23;97117;-81
2024/03/12 03:06:36;;;;;;;40.33;28.02;;;;;;;12.77;67.30;99470.03;6118316;23;97264;-81
2024/03/12 03:09:05;;;;;;;40.75;30.90;;;;;;;12.77;67.65;99474.44;6068715;23;100509;-82
2024/03/12 03:11:31;;;;;;;43.00;30.48;;;;;;;12.64;67.54;99475.13;6093841;23;97170;-81
2024/03/12 03:13:57;;;;;;;46.65;31.75;;;;;;;12.66;67.97;99480.31;6068481;23;97030;-83
2024/03/12 03:16:25;;;;;;;41.78;30.40;;;;;;;12.71;67.30;99486.16;6092915;23;100578;-81
2024/03/12 03:18:52;;;;;;;41.58;30.35;;;;;;;12.58;67.43;99466.72;6070021;22;100218;-81
2024/03/12 03:21:19;;;;;;;44.47;30.48;;;;;;;12.65;66.81;99479.47;6122636;22;96693;-81
2024/03/12 03:23:45;;;;;;;47.40;31.33;;;;;;;12.70;67.55;99489.75;6121628;22;96863;-86
2024/03/12 03:26:11;;;;;;;43.75;31.65;;;;;;;12.76;67.11;99491.19;6096227;22;100712;-81
2024/03/12 03:28:37;;;;;;;44.05;29.98;;;;;;;12.72;67.24;99487.88;6148044;22;97482;-82
2024/03/12 03:31:04;;;;;;;45.22;32.88;;;;;;;12.61;67.43;99485.84;6148660;22;96668;-82
2024/03/12 03:33:29;;;;;;;45.58;32.45;;;;;;;12.62;67.19;99481.41;6096433;22;96794;-81
2024/03/12 03:35:55;;;;;;;49.80;34.17;;;;;;;12.42;67.83;99487.78;6096384;22;100273;-81
2024/03/12 03:38:21;;;;;;;46.67;34.35;;;;;;;12.48;67.66;99492.72;6097863;22;100151;-81
2024/03/12 03:40:47;;;;;;;51.15;34.10;;;;;;;12.60;67.76;99504.38;6123206;22;96694;-81
2024/03/12 03:43:12;;;;;;;47.80;34.40;;;;;;;12.65;67.53;99504.94;6123258;22;97128;-80
2024/03/12 03:45:38;;;;;;;46.42;32.97;;;;;;;12.61;67.36;99501.63;6097958;22;100358;-80
2024/03/12 03:48:04;;;;;;;51.38;34.50;;;;;;;12.65;67.71;99508.44;6122500;22;97261;-81
2024/03/12 03:50:29;;;;;;;46.97;33.72;;;;;;;12.59;67.66;99497.38;6122217;22;96708;-81
2024/03/12 03:52:55;;;;;;;43.45;33.35;;;;;;;12.63;67.19;99505.03;6122402;22;96748;-81
2024/03/12 03:55:23;;;;;;;47.58;34.08;;;;;;;12.60;67.34;99499.94;6121990;22;100703;-81
2024/03/12 03:57:49;;;;;;;54.50;34.47;;;;;;;12.64;67.69;99508.50;6121939;22;97396;-82
2024/03/12 04:00:16;;;;;;;48.53;34.15;;;;;;;12.66;67.49;99509.28;6097907;22;96690;-81
2024/03/12 04:02:44;;;;;;;48.30;35.60;;;;;;;12.58;67.23;99503.59;6096864;22;97235;-81
2024/03/12 04:05:13;;;;;;;59.45;36.90;;;;;;;12.59;67.32;99502.66;6121831;22;97332;-81
2024/03/12 04:07:40;;;;;;;49.25;36.13;;;;;;;12.58;67.51;99514.97;6122338;22;97257;-82
2024/03/12 04:10:10;;;;;;;51.20;35.45;;;;;;;12.58;67.39;99503.59;6097930;22;97182;-81
2024/03/12 04:12:37;;;;;;;51.92;36.50;;;;;;;12.57;67.34;99508.00;6073567;22;97266;-81
2024/03/12 04:15:03;;;;;;;55.03;37.85;;;;;;;12.40;67.33;99511.56;6121670;22;97333;-81
2024/03/12 04:17:28;;;;;;;56.80;36.85;;;;;;;12.37;68.20;99511.72;6096912;22;100544;-81
2024/03/12 04:19:54;;;;;;;55.30;38.42;;;;;;;12.45;68.33;99508.69;6092717;23;96703;-80
2024/03/12 04:22:20;;;;;;;52.03;36.72;;;;;;;12.42;67.82;99504.44;6117825;23;96738;-81
2024/03/12 04:24:46;;;;;;;51.72;36.05;;;;;;;12.49;67.70;99512.00;6117120;23;97866;-81
2024/03/12 04:27:14;;;;;;;53.78;37.03;;;;;;;12.41;68.19;99523.78;6117765;23;97397;-81
2024/03/12 04:29:43;;;;;;;49.03;35.17;;;;;;;12.44;68.42;99523.59;6117807;23;96705;-81
2024/03/12 04:32:09;;;;;;;59.67;38.10;;;;;;;12.42;68.48;99536.03;6093597;23;96867;-82
2024/03/12 04:34:38;;;;;;;54.13;36.63;;;;;;;12.41;68.10;99522.94;6092534;23;100233;-81
2024/03/12 04:37:04;;;;;;;54.22;37.17;;;;;;;12.36;68.30;99533.72;6117617;23;97437;-82
2024/03/12 04:39:30;;;;;;;50.50;36.28;;;;;;;12.39;68.40;99528.28;6092554;23;96671;-80
2024/03/12 04:42:01;;;;;;;53.92;40.17;;;;;;;12.44;68.37;99541.19;6068319;23;97122;-80
2024/03/12 04:44:28;;;;;;;58.25;40.72;;;;;;;12.39;68.68;99537.94;6092541;23;100917;-82
2024/03/12 04:46:53;;;;;;;55.10;37.90;;;;;;;12.47;67.67;99538.38;6068603;23;100707;-81
2024/03/12 04:49:19;;;;;;;57.95;39.33;;;;;;;12.41;68.10;99541.34;6117669;23;96623;-80
2024/03/12 04:51:45;;;;;;;58.20;40.25;;;;;;;12.33;68.92;99546.19;6117891;23;96850;-80
2024/03/12 04:54:11;;;;;;;52.05;37.80;;;;;;;12.37;68.95;99545.09;6091843;23;100748;-81
2024/03/12 04:56:36;;;;;;;55.42;38.95;;;;;;;12.40;68.86;99553.66;6118043;23;100663;-81
2024/03/12 04:59:03;;;;;;;61.35;40.78;;;;;;;12.36;68.66;99549.50;6092694;23;97025;-80
2024/03/12 05:01:28;;;;;;;62.83;39.95;;;;;;;12.30;68.71;99554.22;6093077;23;96833;-84
2024/03/12 05:03:54;;;;;;;55.53;40.22;;;;;;;12.27;68.89;99546.50;6116680;23;97369;-81
2024/03/12 05:06:20;;;;;;;64.57;41.55;;;;;;;12.24;68.79;99553.63;6117347;23;97373;-81
2024/03/12 05:08:45;;;;;;;59.50;40.30;;;;;;;12.16;69.00;99544.47;6118853;22;96730;-81
2024/03/12 05:11:12;;;;;;;60.17;40.22;;;;;;;12.30;68.67;99554.22;6092526;23;97575;-80
2024/03/12 05:13:38;;;;;;;60.08;40.40;;;;;;;12.28;68.95;99561.38;6116135;23;97697;-80
2024/03/12 05:16:03;;;;;;;58.30;39.00;;;;;;;12.27;68.65;99557.88;6091536;23;100749;-80
2024/03/12 05:18:29;;;;;;;57.45;40.47;;;;;;;12.29;68.81;99560.44;6091739;23;96651;-81
2024/03/12 05:20:54;;;;;;;57.40;40.78;;;;;;;12.24;68.81;99566.78;6117329;23;96763;-80
2024/03/12 05:23:20;;;;;;;60.15;40.25;;;;;;;12.31;69.10;99566.47;6091324;23;97614;-80
2024/03/12 05:25:46;;;;;;;56.70;39.83;;;;;;;12.24;69.30;99572.03;6115806;23;100182;-78
2024/03/12 05:28:12;;;;;;;65.22;42.65;;;;;;;12.22;69.11;99571.28;6115865;23;96722;-79
2024/03/12 05:30:40;;;;;;;58.70;41.35;;;;;;;12.13;69.32;99569.16;6114918;23;97137;-80
2024/03/12 05:33:14;;;;;;;63.55;44.35;;;;;;;12.16;68.85;99576.03;6114354;23;97885;-80
2024/03/12 05:35:47;;;;;;;63.08;43.13;;;;;;;12.15;69.15;99577.78;6091034;23;97447;-80
2024/03/12 05:38:30;;;;;;;64.68;44.25;;;;;;;12.13;69.38;99566.53;6068407;23;97012;-82
2024/03/12 05:49:06;;;;;;;64.20;44.38;;;;;;;12.09;69.84;99586.00;6115639;23;97110;-80
2024/03/12 05:51:34;;;;;;;68.20;45.70;;;;;;;12.12;69.11;99588.47;6116112;23;96847;-81
2024/03/12 05:54:00;;;;;;;67.53;46.25;;;;;;;12.03;69.62;99580.22;6090326;23;99817;-80
2024/03/12 05:56:26;;;;;;;68.78;46.10;;;;;;;12.07;69.03;99581.75;6115669;23;100555;-81
2024/03/12 05:58:52;;;;;;;69.75;45.28;;;;;;;12.02;69.29;99584.63;6091859;23;96651;-81
2024/03/12 06:01:17;;;;;;;75.68;45.05;;;;;;;12.00;69.29;99592.59;6116573;23;97038;-85
2024/03/12 06:03:43;;;;;;;75.43;49.28;;;;;;;12.08;69.11;99594.00;6115615;23;97049;-79
2024/03/12 06:06:09;;;;;;;71.25;46.30;;;;;;;12.04;69.13;99590.66;6116250;23;97267;-83
2024/03/12 06:08:35;;;;;;;65.97;46.00;;;;;;;12.08;69.13;99609.78;6116194;23;96766;-90
2024/03/12 06:11:00;;;;;;;72.75;47.10;;;;;;;12.03;69.47;99603.91;6091865;23;97102;-76
2024/03/12 06:13:27;;;;;;;72.68;48.25;;;;;;;12.01;69.35;99611.84;6091384;23;99798;-84
2024/03/12 06:15:53;;;;;;;71.15;46.33;;;;;;;11.96;69.09;99604.22;6090034;23;97962;-85
2024/03/12 06:18:18;;;;;;;70.15;45.80;;;;;;;11.94;68.85;99599.94;6065183;23;97031;-85
2024/03/12 06:20:46;;;;;;;66.90;46.20;;;;;;;11.97;69.14;99621.69;6114284;23;97249;-85
2024/03/12 06:23:15;;;;;;;74.65;49.72;;;;;;;11.94;69.32;99608.69;6090773;23;97554;-84
2024/03/12 06:25:41;;;;;;;74.82;49.28;;;;;;;11.81;69.22;99602.34;6115470;23;97542;-85
2024/03/12 06:28:07;;;;;;;77.50;50.13;;;;;;;11.90;69.48;99616.84;6091392;23;97081;-85
2024/03/12 06:30:35;;;;;;;75.53;47.67;;;;;;;11.86;69.47;99607.38;6115962;23;96731;-85
2024/03/12 06:33:01;;;;;;;71.00;49.13;;;;;;;11.91;69.35;99621.16;6118390;23;97401;-86
2024/03/12 06:35:28;;;;;;;73.90;49.92;;;;;;;11.93;69.64;99628.03;6113868;23;98056;-81
2024/03/12 06:37:54;;;;;;;79.95;50.08;;;;;;;11.95;69.48;99630.56;6116110;23;96720;-89
2024/03/12 06:40:20;;;;;;;78.97;51.70;;;;;;;11.92;69.71;99626.31;6091811;23;96772;-79
2024/03/12 06:42:46;;;;;;;77.40;49.75;;;;;;;11.98;69.27;99627.78;6115230;23;98164;-75
2024/03/12 06:45:11;;;;;;;82.93;51.85;;;;;;;11.95;69.54;99634.06;6116804;23;97300;-78
2024/03/12 06:47:40;;;;;;;80.88;52.42;;;;;;;11.93;69.60;99641.19;6116486;23;97319;-76
2024/03/12 06:50:09;;;;;;;81.60;52.88;;;;;;;11.90;69.45;99628.19;6117820;23;96682;-78
2024/03/12 06:52:36;;;;;;;77.07;50.70;;;;;;;11.87;69.74;99636.25;6091354;23;97347;-79
2024/03/12 06:55:04;;;;;;;79.40;53.78;;;;;;;11.94;69.13;99644.66;6115360;23;97472;-77
2024/03/12 06:57:34;;;;;;;83.50;54.40;;;;;;;11.94;69.56;99648.13;6116672;23;97386;-77
2024/03/12 07:00:08;;;;;;;81.28;51.35;;;;;;;11.91;69.56;99656.19;6116639;23;96807;-80
2024/03/12 07:02:38;;;;;;;84.55;52.47;;;;;;;11.94;69.32;99663.06;6115863;22;96708;-78
2024/03/12 07:05:13;;;;;;;79.55;51.83;;;;;;;11.87;69.01;99649.38;6088856;23;100254;-77
2024/03/12 07:07:43;;;;;;;85.93;51.35;;;;;;;11.85;68.97;99658.25;6089795;23;96780;-79
2024/03/12 07:10:11;;;;;;;82.43;51.40;;;;;;;11.93;68.79;99670.13;6115004;23;97494;-77
2024/03/12 07:12:37;;;;;;;86.80;51.08;;;;;;;11.90;69.37;99659.75;6114709;23;97495;-77
2024/03/12 07:15:05;;;;;;;81.22;50.53;;;;;;;11.85;68.79;99664.38;6088907;23;98372;-81
2024/03/12 07:17:30;;;;;;;83.10;51.00;;;;;;;11.86;69.45;99665.22;6115146;23;97230;-77
2024/03/12 07:19:58;;;;;;;80.95;49.38;;;;;;;11.87;69.09;99672.19;6114364;23;97135;-77
2024/03/12 07:22:25;;;;;;;78.90;48.88;;;;;;;11.78;68.85;99660.34;6114738;23;97437;-77
2024/03/12 07:24:51;;;;;;;78.32;51.97;;;;;;;11.84;69.16;99665.28;6089797;23;99290;-78
2024/03/12 07:27:18;;;;;;;84.78;52.20;;;;;;;11.87;69.55;99673.06;6118080;22;96866;-78
2024/03/12 07:29:44;;;;;;;78.53;49.40;;;;;;;11.88;69.62;99677.38;6117225;23;96717;-77
2024/03/12 07:32:09;;;;;;;79.68;49.65;;;;;;;11.89;69.07;99680.84;6090529;23;100248;-81
2024/03/12 07:34:37;;;;;;;73.13;46.05;;;;;;;11.84;69.13;99674.94;6117634;23;97276;-78
2024/03/12 07:37:02;;;;;;;79.53;48.47;;;;;;;11.79;69.38;99683.91;6114436;23;97219;-86
2024/03/12 07:39:34;;;;;;;77.53;49.03;;;;;;;11.77;69.49;99682.28;6089276;23;97130;-84
2024/03/12 07:42:05;;;;;;;78.28;47.08;;;;;;;11.40;70.07;99643.78;6113751;23;97370;-83
2024/03/12 07:44:32;;;;;;;70.90;43.85;;;;;;;11.60;69.95;99679.63;6088509;23;100197;-86
2024/03/12 07:46:58;;;;;;;69.13;45.15;;;;;;;11.62;69.60;99675.16;6090275;23;97237;-85
2024/03/12 07:49:24;;;;;;;72.45;45.58;;;;;;;11.63;70.04;99682.94;6064734;23;96825;-86
2024/03/12 07:51:50;;;;;;;72.85;46.30;;;;;;;11.56;69.99;99682.41;6088655;23;97336;-85
2024/03/12 07:54:18;;;;;;;69.18;45.13;;;;;;;11.60;69.85;99690.97;6088171;23;97996;-85
2024/03/12 07:56:50;;;;;;;68.65;45.80;;;;;;;11.47;70.21;99687.25;6113126;23;96760;-87
2024/03/12 07:59:17;;;;;;;64.93;43.05;;;;;;;11.50;70.02;99690.59;6091085;23;97674;-88
2024/03/12 08:01:46;;;;;;;69.30;44.80;;;;;;;11.59;70.16;99688.44;6090068;23;97376;-87
2024/03/12 08:04:12;;;;;;;68.40;43.40;;;;;;;11.62;69.75;99685.66;6113890;23;97202;-88
2024/03/12 08:06:39;;;;;;;71.93;45.55;;;;;;;11.68;69.72;99690.63;6065594;23;97391;-87
2024/03/12 08:09:06;;;;;;;73.13;44.00;;;;;;;11.73;69.48;99691.25;6089937;23;97185;-87
2024/03/12 08:11:33;;;;;;;62.85;42.67;;;;;;;11.69;70.14;99689.69;6114257;23;97366;-88
2024/03/12 08:13:59;;;;;;;68.93;44.13;;;;;;;11.69;70.21;99693.19;6089365;23;100299;-89
2024/03/12 08:16:25;;;;;;;67.55;42.08;;;;;;;11.70;70.40;99699.28;6090010;23;96828;-85
2024/03/12 08:18:50;;;;;;;67.63;42.20;;;;;;;11.73;70.08;99705.25;6090380;23;96795;-87
2024/03/12 08:21:16;;;;;;;68.80;44.60;;;;;;;11.72;70.23;99697.41;6089019;23;97426;-87
2024/03/12 08:23:41;;;;;;;66.78;41.55;;;;;;;11.71;70.32;99703.63;6114186;23;97740;-86
2024/03/12 08:26:07;;;;;;;56.85;40.13;;;;;;;11.75;69.93;99698.16;6088880;23;97177;-87
2024/03/12 08:28:33;;;;;;;58.20;39.70;;;;;;;11.83;70.37;99710.06;6117126;23;96712;-87
2024/03/12 08:30:59;;;;;;;59.95;40.95;;;;;;;11.77;70.16;99698.06;6116707;23;97382;-86
2024/03/12 08:33:25;;;;;;;56.67;38.97;;;;;;;11.78;70.04;99718.19;6092798;23;97321;-85
2024/03/12 08:35:50;;;;;;;54.55;38.67;;;;;;;11.57;70.38;99718.25;6116282;23;96610;-86
2024/03/12 08:38:16;;;;;;;59.10;39.58;;;;;;;11.67;70.37;99710.81;6119081;22;96722;-88
2024/03/12 08:40:42;;;;;;;50.17;37.00;;;;;;;11.50;70.38;99697.63;6067214;23;100845;-87
2024/03/12 08:43:08;;;;;;;57.03;37.97;;;;;;;11.68;70.23;99730.91;6092107;23;99257;-86
2024/03/12 08:45:35;;;;;;;53.40;37.20;;;;;;;11.70;70.07;99717.69;6115198;23;97351;-86
2024/03/12 08:48:03;;;;;;;51.00;36.03;;;;;;;11.70;69.92;99715.06;6115167;23;96805;-87
2024/03/12 08:50:29;;;;;;;49.42;34.55;;;;;;;11.76;70.04;99725.28;6087269;23;99544;-86
2024/03/12 08:52:55;;;;;;;51.63;34.92;;;;;;;11.82;69.61;99721.50;6114423;23;97882;-87
2024/03/12 08:55:20;;;;;;;52.85;34.83;;;;;;;11.87;69.56;99730.91;6063405;23;97224;-86
2024/03/12 08:57:46;;;;;;;55.42;34.63;;;;;;;11.83;69.81;99717.94;6089249;23;97185;-86
2024/03/12 09:00:12;;;;;;;53.95;35.92;;;;;;;11.89;69.67;99734.31;6088494;23;98029;-85
2024/03/12 09:02:39;;;;;;;52.42;35.28;;;;;;;11.82;70.22;99727.63;6064868;23;100490;-85
2024/03/12 09:05:09;;;;;;;52.78;37.35;;;;;;;11.87;69.89;99733.53;6113180;23;96991;-86
2024/03/12 09:07:37;;;;;;;53.30;36.33;;;;;;;11.94;69.57;99747.25;6114301;23;96837;-85
2024/03/12 09:10:11;;;;;;;46.58;34.55;;;;;;;11.86;69.81;99730.97;6112620;23;99525;-86
2024/03/12 09:12:37;;;;;;;52.55;35.90;;;;;;;11.83;70.34;99745.09;6090753;23;100584;-86
2024/03/12 09:15:03;;;;;;;50.22;33.75;;;;;;;11.81;70.09;99739.06;6088840;23;97212;-84
2024/03/12 09:17:29;;;;;;;47.40;33.90;;;;;;;11.90;69.83;99741.28;6115676;22;96757;-86
2024/03/12 09:19:54;;;;;;;51.53;35.55;;;;;;;11.84;69.98;99752.06;6089317;23;101128;-85
2024/03/12 09:22:20;;;;;;;45.75;31.58;;;;;;;11.85;69.71;99750.28;6114271;23;98000;-85
2024/03/12 09:24:45;;;;;;;43.53;31.45;;;;;;;11.93;69.45;99754.28;6087993;23;96869;-85
2024/03/12 09:27:11;;;;;;;45.80;32.28;;;;;;;11.95;70.00;99755.03;6090118;23;97340;-86
2024/03/12 09:29:39;;;;;;;47.88;31.98;;;;;;;11.77;70.02;99750.66;6111623;23;98359;-86
2024/03/12 09:32:05;;;;;;;45.78;32.33;;;;;;;11.68;70.46;99749.31;6062751;23;100050;-86
2024/03/12 09:34:33;;;;;;;41.40;29.30;;;;;;;11.73;70.21;99749.94;6112877;23;96978;-85
2024/03/12 09:36:58;;;;;;;42.03;29.63;;;;;;;11.85;69.91;99755.53;6089563;23;97009;-85
2024/03/12 09:39:24;;;;;;;43.90;29.77;;;;;;;11.85;70.28;99761.69;6089007;23;99508;-84
2024/03/12 09:41:53;;;;;;;46.10;31.15;;;;;;;11.87;70.79;99754.59;6113941;23;99423;-86
2024/03/12 09:44:21;;;;;;;44.03;31.10;;;;;;;11.96;70.05;99755.91;6113604;23;96756;-83
2024/03/12 09:46:47;;;;;;;43.90;29.85;;;;;;;11.96;70.33;99753.28;6112961;23;97240;-86
2024/03/12 09:49:14;;;;;;;42.80;28.60;;;;;;;12.06;69.72;99762.41;6064647;23;100260;-87
2024/03/12 09:51:41;;;;;;;45.17;30.30;;;;;;;12.04;69.72;99768.69;6116219;22;97269;-85
2024/03/12 09:54:09;;;;;;;44.80;29.98;;;;;;;12.11;69.93;99770.94;6113300;23;97377;-86
2024/03/12 09:56:34;;;;;;;44.72;30.90;;;;;;;12.11;69.77;99762.22;6089483;23;96827;-85
2024/03/12 09:59:00;;;;;;;43.17;29.75;;;;;;;11.99;69.88;99768.91;6088904;23;100572;-85
2024/03/12 10:01:26;;;;;;;42.80;30.23;;;;;;;11.87;70.10;99775.63;6088782;23;100360;-84
2024/03/12 10:03:55;;;;;;;46.28;30.52;;;;;;;11.95;70.00;99780.50;6113863;23;96757;-83
2024/03/12 10:06:21;;;;;;;47.65;33.05;;;;;;;11.81;70.39;99777.63;6114052;23;96774;-86
2024/03/12 10:08:46;;;;;;;45.90;31.77;;;;;;;11.72;70.47;99771.91;6064499;23;100591;-85
2024/03/12 10:11:21;;;;;;;46.45;30.67;;;;;;;11.87;70.56;99770.38;6089786;23;100660;-85
2024/03/12 10:13:58;;;;;;;48.70;32.33;;;;;;;11.88;70.34;99766.78;6113951;23;97109;-89
2024/03/12 10:16:24;;;;;;;46.58;31.55;;;;;;;11.91;70.33;99768.44;6090964;23;97303;-88
2024/03/12 10:19:17;;;;;;;47.83;31.17;;;;;;;12.03;70.10;99785.41;6089595;23;98806;-88
2024/03/12 10:21:44;;;;;;;46.25;31.13;;;;;;;12.05;70.07;99780.91;6114664;23;100523;-87
2024/03/12 10:24:18;;;;;;;45.83;32.00;;;;;;;12.08;70.15;99784.25;6064535;23;96747;-89
2024/03/12 10:26:44;;;;;;;49.38;31.60;;;;;;;12.07;70.04;99787.81;6114392;23;96680;-87
2024/03/12 10:29:12;;;;;;;47.78;31.42;;;;;;;12.08;69.79;99786.88;6090167;23;100265;-88
2024/03/12 10:31:43;;;;;;;45.05;31.08;;;;;;;12.12;69.70;99784.94;6114688;23;97499;-89
2024/03/12 10:34:17;;;;;;;48.72;30.23;;;;;;;12.08;70.10;99788.66;6091572;23;96600;-88
2024/03/12 10:36:43;;;;;;;41.55;28.33;;;;;;;12.14;70.09;99788.38;6114433;23;97116;-86
2024/03/12 10:39:12;;;;;;;40.95;28.33;;;;;;;11.96;70.37;99766.44;6062576;23;100263;-87
2024/03/12 10:41:39;;;;;;;45.90;29.50;;;;;;;12.09;70.25;99801.72;6064809;23;100525;-88
2024/03/12 10:44:10;;;;;;;42.28;30.92;;;;;;;11.86;70.80;99800.19;6064781;23;97134;-88
2024/03/12 10:46:39;;;;;;;51.50;31.35;;;;;;;11.88;70.84;99798.34;6090698;23;97354;-89
2024/03/12 10:49:10;;;;;;;48.97;33.05;;;;;;;11.86;70.88;99794.94;6113793;23;97840;-89
2024/03/12 10:51:39;;;;;;;49.50;31.75;;;;;;;12.00;70.48;99797.75;6090570;23;100424;-89
2024/03/12 10:54:06;;;;;;;52.60;33.90;;;;;;;12.08;71.04;99792.13;6089282;23;96762;-89
2024/03/12 10:56:31;;;;;;;47.15;33.95;;;;;;;12.20;69.92;99801.22;6089291;23;97148;-88
2024/03/12 10:58:57;;;;;;;45.90;31.58;;;;;;;12.16;70.73;99804.94;6114478;23;97565;-89
2024/03/12 11:01:23;;;;;;;48.13;33.40;;;;;;;11.81;71.17;99802.19;6089997;23;97220;-87
2024/03/12 11:03:56;;;;;;;50.05;32.78;;;;;;;12.02;71.30;99807.38;6089473;23;97167;-89
2024/03/12 11:06:22;;;;;;;47.95;33.88;;;;;;;11.78;71.50;99804.97;6089960;23;97137;-84
2024/03/12 11:08:48;;;;;;;48.47;34.53;;;;;;;11.94;71.46;99816.47;6088749;23;100132;-88
2024/03/12 11:11:14;;;;;;;44.92;31.65;;;;;;;12.13;71.28;99805.06;6089486;23;100514;-85
2024/03/12 11:13:40;;;;;;;52.55;35.10;;;;;;;12.21;70.94;99798.50;6064718;23;97127;-87
2024/03/12 11:16:15;;;;;;;53.20;35.97;;;;;;;12.29;71.34;99803.38;6113918;23;97252;-85
2024/03/12 11:18:43;;;;;;;50.30;34.25;;;;;;;12.23;70.73;99790.53;6090983;23;98028;-84
2024/03/12 11:21:13;;;;;;;54.85;34.92;;;;;;;12.21;70.38;99795.84;6119174;22;97622;-83
2024/03/12 11:23:40;;;;;;;50.92;34.90;;;;;;;12.33;70.54;99810.19;6120534;22;97210;-86